sensor_id;sensor_type;location;lat;lon;timestamp;temperature;humidity
50738;DHT22;36703;48.154;17.126;2023-07-31T00:00:21;25.60;77.20
50738;DHT22;36703;48.154;17.126;2023-07-31T00:04:22;25.60;78.30
50738;DHT22;36703;48.154;17.126;2023-07-31T00:08:24;25.60;78.50
50738;DHT22;36703;48.154;17.126;2023-07-31T00:12:25;25.50;78.50
50738;DHT22;36703;48.154;17.126;2023-07-31T00:16:27;25.40;77.40
50738;DHT22;36703;48.154;17.126;2023-07-31T00:20:29;25.40;78.30
50738;DHT22;36703;48.154;17.126;2023-07-31T00:24:30;25.40;78.30
50738;DHT22;36703;48.154;17.126;2023-07-31T00:28:32;25.30;77.40
50738;DHT22;36703;48.154;17.126;2023-07-31T00:32:33;25.40;78.70
50738;DHT22;36703;48.154;17.126;2023-07-31T00:36:36;25.30;77.30
50738;DHT22;36703;48.154;17.126;2023-07-31T00:40:38;25.40;78.30
50738;DHT22;36703;48.154;17.126;2023-07-31T00:44:39;25.30;77.90
50738;DHT22;36703;48.154;17.126;2023-07-31T00:48:41;25.20;77.90
50738;DHT22;36703;48.154;17.126;2023-07-31T00:52:43;25.20;77.80
50738;DHT22;36703;48.154;17.126;2023-07-31T00:56:47;25.20;77.60
50738;DHT22;36703;48.154;17.126;2023-07-31T01:00:49;25.10;77.60
50738;DHT22;36703;48.154;17.126;2023-07-31T01:04:52;25.10;77.60
50738;DHT22;36703;48.154;17.126;2023-07-31T01:09:04;25.00;76.60
50738;DHT22;36703;48.154;17.126;2023-07-31T01:13:35;25.00;77.30
50738;DHT22;36703;48.154;17.126;2023-07-31T01:17:43;24.80;77.30
50738;DHT22;36703;48.154;17.126;2023-07-31T01:26:11;24.70;77.50
50738;DHT22;36703;48.154;17.126;2023-07-31T01:30:19;24.70;77.20
50738;DHT22;36703;48.154;17.126;2023-07-31T01:34:23;24.70;77.20
50738;DHT22;36703;48.154;17.126;2023-07-31T01:38:26;24.70;77.40
50738;DHT22;36703;48.154;17.126;2023-07-31T01:42:28;24.60;77.70
50738;DHT22;36703;48.154;17.126;2023-07-31T01:46:29;24.40;77.40
50738;DHT22;36703;48.154;17.126;2023-07-31T01:50:31;24.40;77.20
50738;DHT22;36703;48.154;17.126;2023-07-31T01:54:33;24.40;77.90
50738;DHT22;36703;48.154;17.126;2023-07-31T01:58:34;24.40;77.30
50738;DHT22;36703;48.154;17.126;2023-07-31T02:02:36;24.60;76.50
50738;DHT22;36703;48.154;17.126;2023-07-31T02:06:38;24.40;76.00
50738;DHT22;36703;48.154;17.126;2023-07-31T02:10:41;24.50;76.60
50738;DHT22;36703;48.154;17.126;2023-07-31T02:14:43;24.50;76.60
50738;DHT22;36703;48.154;17.126;2023-07-31T02:18:45;24.50;76.50
50738;DHT22;36703;48.154;17.126;2023-07-31T02:22:47;24.20;76.40
50738;DHT22;36703;48.154;17.126;2023-07-31T02:26:49;24.40;75.00
50738;DHT22;36703;48.154;17.126;2023-07-31T02:30:51;24.40;74.80
50738;DHT22;36703;48.154;17.126;2023-07-31T02:34:53;24.50;75.70
50738;DHT22;36703;48.154;17.126;2023-07-31T02:38:55;24.50;75.50
50738;DHT22;36703;48.154;17.126;2023-07-31T02:42:56;24.50;75.50
50738;DHT22;36703;48.154;17.126;2023-07-31T02:46:59;24.40;75.50
50738;DHT22;36703;48.154;17.126;2023-07-31T02:51:00;24.40;74.90
50738;DHT22;36703;48.154;17.126;2023-07-31T02:55:02;24.30;74.80
50738;DHT22;36703;48.154;17.126;2023-07-31T02:59:04;24.30;75.70
50738;DHT22;36703;48.154;17.126;2023-07-31T03:03:05;24.30;76.00
50738;DHT22;36703;48.154;17.126;2023-07-31T03:07:07;24.30;75.60
50738;DHT22;36703;48.154;17.126;2023-07-31T03:11:08;24.20;74.80
50738;DHT22;36703;48.154;17.126;2023-07-31T03:15:10;24.20;75.80
50738;DHT22;36703;48.154;17.126;2023-07-31T03:19:12;24.10;75.70
50738;DHT22;36703;48.154;17.126;2023-07-31T03:23:13;23.90;75.00
50738;DHT22;36703;48.154;17.126;2023-07-31T03:27:15;24.10;76.10
50738;DHT22;36703;48.154;17.126;2023-07-31T03:31:16;24.10;76.10
50738;DHT22;36703;48.154;17.126;2023-07-31T03:35:18;23.70;76.00
50738;DHT22;36703;48.154;17.126;2023-07-31T03:39:20;24.00;75.10
50738;DHT22;36703;48.154;17.126;2023-07-31T03:43:21;23.90;74.90
50738;DHT22;36703;48.154;17.126;2023-07-31T03:47:23;24.00;76.00
50738;DHT22;36703;48.154;17.126;2023-07-31T03:51:24;24.00;76.00
50738;DHT22;36703;48.154;17.126;2023-07-31T03:55:26;24.00;75.50
50738;DHT22;36703;48.154;17.126;2023-07-31T03:59:27;23.90;75.40
50738;DHT22;36703;48.154;17.126;2023-07-31T04:03:29;23.90;75.50
50738;DHT22;36703;48.154;17.126;2023-07-31T04:07:31;23.90;75.20
50738;DHT22;36703;48.154;17.126;2023-07-31T04:11:32;23.90;75.00
50738;DHT22;36703;48.154;17.126;2023-07-31T04:15:34;23.90;75.50
50738;DHT22;36703;48.154;17.126;2023-07-31T04:19:35;23.90;75.20
50738;DHT22;36703;48.154;17.126;2023-07-31T04:23:37;23.90;74.80
50738;DHT22;36703;48.154;17.126;2023-07-31T04:27:39;23.80;74.60
50738;DHT22;36703;48.154;17.126;2023-07-31T04:31:41;23.80;74.70
50738;DHT22;36703;48.154;17.126;2023-07-31T04:35:52;23.80;74.90
50738;DHT22;36703;48.154;17.126;2023-07-31T04:39:54;23.80;74.60
50738;DHT22;36703;48.154;17.126;2023-07-31T04:43:56;23.80;74.80
50738;DHT22;36703;48.154;17.126;2023-07-31T04:47:57;23.40;73.90
50738;DHT22;36703;48.154;17.126;2023-07-31T04:51:59;23.80;74.80
50738;DHT22;36703;48.154;17.126;2023-07-31T04:56:00;23.80;73.80
50738;DHT22;36703;48.154;17.126;2023-07-31T05:00:02;23.80;74.70
50738;DHT22;36703;48.154;17.126;2023-07-31T05:04:04;23.80;74.90
50738;DHT22;36703;48.154;17.126;2023-07-31T05:08:05;23.80;75.10
50738;DHT22;36703;48.154;17.126;2023-07-31T05:12:07;23.80;73.70
50738;DHT22;36703;48.154;17.126;2023-07-31T05:16:09;23.80;73.70
50738;DHT22;36703;48.154;17.126;2023-07-31T05:20:11;23.70;74.90
50738;DHT22;36703;48.154;17.126;2023-07-31T05:24:13;23.90;74.50
50738;DHT22;36703;48.154;17.126;2023-07-31T05:28:14;23.90;73.80
50738;DHT22;36703;48.154;17.126;2023-07-31T05:32:16;24.00;74.60
50738;DHT22;36703;48.154;17.126;2023-07-31T05:36:18;23.90;73.40
50738;DHT22;36703;48.154;17.126;2023-07-31T05:40:19;24.00;74.50
50738;DHT22;36703;48.154;17.126;2023-07-31T05:44:21;24.00;74.40
50738;DHT22;36703;48.154;17.126;2023-07-31T05:48:22;24.00;74.40
50738;DHT22;36703;48.154;17.126;2023-07-31T05:52:24;24.00;74.80
50738;DHT22;36703;48.154;17.126;2023-07-31T05:56:25;24.00;74.80
50738;DHT22;36703;48.154;17.126;2023-07-31T06:00:28;24.10;74.80
50738;DHT22;36703;48.154;17.126;2023-07-31T06:04:29;24.10;74.90
50738;DHT22;36703;48.154;17.126;2023-07-31T06:08:31;24.00;73.80
50738;DHT22;36703;48.154;17.126;2023-07-31T06:12:33;24.10;74.80
50738;DHT22;36703;48.154;17.126;2023-07-31T06:16:35;24.20;74.50
50738;DHT22;36703;48.154;17.126;2023-07-31T06:20:37;24.50;74.00
50738;DHT22;36703;48.154;17.126;2023-07-31T06:24:41;24.40;74.30
50738;DHT22;36703;48.154;17.126;2023-07-31T06:28:43;24.50;74.10
50738;DHT22;36703;48.154;17.126;2023-07-31T06:32:44;24.60;73.80
50738;DHT22;36703;48.154;17.126;2023-07-31T06:36:46;24.60;73.70
50738;DHT22;36703;48.154;17.126;2023-07-31T06:40:47;24.60;73.40
50738;DHT22;36703;48.154;17.126;2023-07-31T06:44:50;24.70;74.10
50738;DHT22;36703;48.154;17.126;2023-07-31T06:48:51;24.80;73.40
50738;DHT22;36703;48.154;17.126;2023-07-31T06:52:53;24.90;73.30
50738;DHT22;36703;48.154;17.126;2023-07-31T06:56:54;25.10;72.60
50738;DHT22;36703;48.154;17.126;2023-07-31T07:00:56;25.20;72.10
50738;DHT22;36703;48.154;17.126;2023-07-31T07:04:57;25.20;71.50
50738;DHT22;36703;48.154;17.126;2023-07-31T07:08:59;25.20;71.40
50738;DHT22;36703;48.154;17.126;2023-07-31T07:13:00;25.30;71.00
50738;DHT22;36703;48.154;17.126;2023-07-31T07:17:02;25.30;70.80
50738;DHT22;36703;48.154;17.126;2023-07-31T07:21:04;25.40;70.70
50738;DHT22;36703;48.154;17.126;2023-07-31T07:25:06;25.40;70.60
50738;DHT22;36703;48.154;17.126;2023-07-31T07:29:08;25.50;70.40
50738;DHT22;36703;48.154;17.126;2023-07-31T07:33:12;25.50;70.50
50738;DHT22;36703;48.154;17.126;2023-07-31T07:37:13;25.60;70.60
50738;DHT22;36703;48.154;17.126;2023-07-31T07:41:15;25.60;70.60
50738;DHT22;36703;48.154;17.126;2023-07-31T07:45:16;25.70;70.50
50738;DHT22;36703;48.154;17.126;2023-07-31T07:49:18;25.80;71.20
50738;DHT22;36703;48.154;17.126;2023-07-31T07:53:19;25.90;70.30
50738;DHT22;36703;48.154;17.126;2023-07-31T07:57:21;26.00;70.20
50738;DHT22;36703;48.154;17.126;2023-07-31T08:01:22;26.00;69.80
50738;DHT22;36703;48.154;17.126;2023-07-31T08:05:24;26.10;69.50
50738;DHT22;36703;48.154;17.126;2023-07-31T08:09:26;26.20;68.60
50738;DHT22;36703;48.154;17.126;2023-07-31T08:13:27;26.20;68.00
50738;DHT22;36703;48.154;17.126;2023-07-31T08:17:29;26.30;67.70
50738;DHT22;36703;48.154;17.126;2023-07-31T08:21:31;26.40;67.40
50738;DHT22;36703;48.154;17.126;2023-07-31T08:25:35;26.50;66.90
50738;DHT22;36703;48.154;17.126;2023-07-31T08:29:37;26.50;66.50
50738;DHT22;36703;48.154;17.126;2023-07-31T08:33:39;26.60;66.40
50738;DHT22;36703;48.154;17.126;2023-07-31T08:37:41;26.60;65.40
50738;DHT22;36703;48.154;17.126;2023-07-31T08:41:42;26.60;64.90
50738;DHT22;36703;48.154;17.126;2023-07-31T08:45:44;26.60;64.20
50738;DHT22;36703;48.154;17.126;2023-07-31T08:49:46;26.60;63.40
50738;DHT22;36703;48.154;17.126;2023-07-31T08:53:48;26.70;63.20
50738;DHT22;36703;48.154;17.126;2023-07-31T08:57:54;26.70;63.40
50738;DHT22;36703;48.154;17.126;2023-07-31T09:02:00;26.80;63.10
50738;DHT22;36703;48.154;17.126;2023-07-31T09:06:10;26.90;62.80
50738;DHT22;36703;48.154;17.126;2023-07-31T09:10:12;26.90;62.80
50738;DHT22;36703;48.154;17.126;2023-07-31T09:14:14;27.00;62.60
50738;DHT22;36703;48.154;17.126;2023-07-31T09:18:16;27.00;62.40
50738;DHT22;36703;48.154;17.126;2023-07-31T09:22:34;27.10;62.70
50738;DHT22;36703;48.154;17.126;2023-07-31T09:26:36;27.20;62.20
50738;DHT22;36703;48.154;17.126;2023-07-31T09:30:49;27.20;62.30
50738;DHT22;36703;48.154;17.126;2023-07-31T09:34:51;27.30;62.20
50738;DHT22;36703;48.154;17.126;2023-07-31T09:38:53;27.30;62.50
50738;DHT22;36703;48.154;17.126;2023-07-31T09:43:00;27.30;62.30
50738;DHT22;36703;48.154;17.126;2023-07-31T09:47:03;27.40;62.10
50738;DHT22;36703;48.154;17.126;2023-07-31T09:51:04;27.40;62.60
50738;DHT22;36703;48.154;17.126;2023-07-31T09:55:06;27.50;62.40
50738;DHT22;36703;48.154;17.126;2023-07-31T09:59:11;27.70;61.70
50738;DHT22;36703;48.154;17.126;2023-07-31T10:03:14;27.70;61.10
50738;DHT22;36703;48.154;17.126;2023-07-31T10:07:18;27.80;60.80
50738;DHT22;36703;48.154;17.126;2023-07-31T10:11:22;27.90;60.50
50738;DHT22;36703;48.154;17.126;2023-07-31T10:15:25;28.10;60.10
50738;DHT22;36703;48.154;17.126;2023-07-31T10:19:28;28.20;59.70
50738;DHT22;36703;48.154;17.126;2023-07-31T10:23:31;28.20;59.40
50738;DHT22;36703;48.154;17.126;2023-07-31T10:27:35;28.40;59.30
50738;DHT22;36703;48.154;17.126;2023-07-31T10:31:37;28.50;58.90
50738;DHT22;36703;48.154;17.126;2023-07-31T10:35:40;28.40;58.60
50738;DHT22;36703;48.154;17.126;2023-07-31T10:39:41;28.50;58.80
50738;DHT22;36703;48.154;17.126;2023-07-31T10:43:43;28.50;59.20
50738;DHT22;36703;48.154;17.126;2023-07-31T10:47:47;28.50;58.20
50738;DHT22;36703;48.154;17.126;2023-07-31T10:51:48;28.60;58.30
50738;DHT22;36703;48.154;17.126;2023-07-31T10:55:50;28.80;57.90
50738;DHT22;36703;48.154;17.126;2023-07-31T11:00:25;28.90;57.80
50738;DHT22;36703;48.154;17.126;2023-07-31T11:04:29;29.10;57.20
50738;DHT22;36703;48.154;17.126;2023-07-31T11:08:33;29.20;57.80
50738;DHT22;36703;48.154;17.126;2023-07-31T11:12:37;29.20;56.90
50738;DHT22;36703;48.154;17.126;2023-07-31T11:16:41;29.20;56.80
50738;DHT22;36703;48.154;17.126;2023-07-31T11:20:43;29.10;56.80
50738;DHT22;36703;48.154;17.126;2023-07-31T11:24:44;29.10;56.70
50738;DHT22;36703;48.154;17.126;2023-07-31T11:28:50;29.10;56.70
50738;DHT22;36703;48.154;17.126;2023-07-31T11:32:52;29.20;56.50
50738;DHT22;36703;48.154;17.126;2023-07-31T11:36:54;29.30;56.50
50738;DHT22;36703;48.154;17.126;2023-07-31T11:41:02;29.30;56.30
50738;DHT22;36703;48.154;17.126;2023-07-31T11:45:05;29.20;56.00
50738;DHT22;36703;48.154;17.126;2023-07-31T11:49:08;29.20;56.10
50738;DHT22;36703;48.154;17.126;2023-07-31T11:53:10;29.20;56.40
50738;DHT22;36703;48.154;17.126;2023-07-31T11:57:11;29.20;56.50
50738;DHT22;36703;48.154;17.126;2023-07-31T12:01:19;29.20;56.50
50738;DHT22;36703;48.154;17.126;2023-07-31T12:05:22;29.20;56.60
50738;DHT22;36703;48.154;17.126;2023-07-31T12:09:24;29.00;56.90
50738;DHT22;36703;48.154;17.126;2023-07-31T12:13:27;28.90;57.20
50738;DHT22;36703;48.154;17.126;2023-07-31T12:17:29;29.00;57.50
50738;DHT22;36703;48.154;17.126;2023-07-31T12:21:30;29.10;57.70
50738;DHT22;36703;48.154;17.126;2023-07-31T12:25:33;29.10;57.70
50738;DHT22;36703;48.154;17.126;2023-07-31T12:29:35;29.10;57.90
50738;DHT22;36703;48.154;17.126;2023-07-31T12:33:39;29.20;57.90
50738;DHT22;36703;48.154;17.126;2023-07-31T12:37:41;29.20;57.50
50738;DHT22;36703;48.154;17.126;2023-07-31T12:41:43;29.20;57.70
50738;DHT22;36703;48.154;17.126;2023-07-31T12:45:44;29.30;57.70
50738;DHT22;36703;48.154;17.126;2023-07-31T12:49:46;29.30;57.70
50738;DHT22;36703;48.154;17.126;2023-07-31T12:53:47;29.30;57.80
50738;DHT22;36703;48.154;17.126;2023-07-31T12:57:50;29.30;57.80
50738;DHT22;36703;48.154;17.126;2023-07-31T13:01:52;29.20;57.60
50738;DHT22;36703;48.154;17.126;2023-07-31T13:05:54;29.20;57.80
50738;DHT22;36703;48.154;17.126;2023-07-31T13:09:55;29.30;58.00
50738;DHT22;36703;48.154;17.126;2023-07-31T13:13:57;29.30;57.90
50738;DHT22;36703;48.154;17.126;2023-07-31T13:17:58;29.30;57.60
50738;DHT22;36703;48.154;17.126;2023-07-31T13:22:00;29.40;57.90
50738;DHT22;36703;48.154;17.126;2023-07-31T13:26:02;29.40;58.30
50738;DHT22;36703;48.154;17.126;2023-07-31T13:30:04;29.40;58.40
50738;DHT22;36703;48.154;17.126;2023-07-31T13:34:06;29.30;58.00
50738;DHT22;36703;48.154;17.126;2023-07-31T13:38:07;29.30;58.00
50738;DHT22;36703;48.154;17.126;2023-07-31T13:42:10;29.30;57.60
50738;DHT22;36703;48.154;17.126;2023-07-31T13:46:13;29.30;57.60
50738;DHT22;36703;48.154;17.126;2023-07-31T13:50:15;29.20;57.70
50738;DHT22;36703;48.154;17.126;2023-07-31T13:54:17;29.20;57.70
50738;DHT22;36703;48.154;17.126;2023-07-31T13:58:20;29.20;57.60
50738;DHT22;36703;48.154;17.126;2023-07-31T14:02:22;29.20;57.70
50738;DHT22;36703;48.154;17.126;2023-07-31T14:06:23;29.10;57.80
50738;DHT22;36703;48.154;17.126;2023-07-31T14:10:25;29.20;58.00
50738;DHT22;36703;48.154;17.126;2023-07-31T14:14:26;29.20;57.70
50738;DHT22;36703;48.154;17.126;2023-07-31T14:18:28;29.30;57.50
50738;DHT22;36703;48.154;17.126;2023-07-31T14:22:30;29.30;57.50
50738;DHT22;36703;48.154;17.126;2023-07-31T14:26:32;29.30;57.50
50738;DHT22;36703;48.154;17.126;2023-07-31T14:30:33;29.40;57.70
50738;DHT22;36703;48.154;17.126;2023-07-31T14:34:35;29.00;56.30
50738;DHT22;36703;48.154;17.126;2023-07-31T14:38:36;29.40;57.00
50738;DHT22;36703;48.154;17.126;2023-07-31T14:42:38;29.40;56.80
50738;DHT22;36703;48.154;17.126;2023-07-31T14:46:40;29.50;56.80
50738;DHT22;36703;48.154;17.126;2023-07-31T14:50:42;29.50;56.80
50738;DHT22;36703;48.154;17.126;2023-07-31T14:54:44;29.60;56.80
50738;DHT22;36703;48.154;17.126;2023-07-31T14:58:46;29.60;56.30
50738;DHT22;36703;48.154;17.126;2023-07-31T15:02:47;29.60;56.70
50738;DHT22;36703;48.154;17.126;2023-07-31T15:06:50;29.60;55.70
50738;DHT22;36703;48.154;17.126;2023-07-31T15:10:54;29.60;55.40
50738;DHT22;36703;48.154;17.126;2023-07-31T15:14:58;29.60;55.70
50738;DHT22;36703;48.154;17.126;2023-07-31T15:19:00;29.50;55.90
50738;DHT22;36703;48.154;17.126;2023-07-31T15:23:01;29.50;56.50
50738;DHT22;36703;48.154;17.126;2023-07-31T15:27:03;29.50;56.70
50738;DHT22;36703;48.154;17.126;2023-07-31T15:31:04;29.50;57.10
50738;DHT22;36703;48.154;17.126;2023-07-31T15:35:07;29.40;56.80
50738;DHT22;36703;48.154;17.126;2023-07-31T15:39:08;29.40;56.70
50738;DHT22;36703;48.154;17.126;2023-07-31T15:43:10;29.40;56.80
50738;DHT22;36703;48.154;17.126;2023-07-31T15:47:11;29.40;57.10
50738;DHT22;36703;48.154;17.126;2023-07-31T15:51:13;29.40;57.10
50738;DHT22;36703;48.154;17.126;2023-07-31T15:55:15;29.40;56.80
50738;DHT22;36703;48.154;17.126;2023-07-31T15:59:17;29.40;56.70
50738;DHT22;36703;48.154;17.126;2023-07-31T16:03:18;29.40;57.00
50738;DHT22;36703;48.154;17.126;2023-07-31T16:07:22;29.40;57.00
50738;DHT22;36703;48.154;17.126;2023-07-31T16:11:24;29.40;57.40
50738;DHT22;36703;48.154;17.126;2023-07-31T16:15:26;29.40;57.80
50738;DHT22;36703;48.154;17.126;2023-07-31T16:19:27;29.30;57.80
50738;DHT22;36703;48.154;17.126;2023-07-31T16:23:29;29.30;57.90
50738;DHT22;36703;48.154;17.126;2023-07-31T16:27:31;29.30;58.10
50738;DHT22;36703;48.154;17.126;2023-07-31T16:31:32;29.20;57.90
50738;DHT22;36703;48.154;17.126;2023-07-31T16:35:34;29.20;58.00
50738;DHT22;36703;48.154;17.126;2023-07-31T16:39:35;29.20;58.00
50738;DHT22;36703;48.154;17.126;2023-07-31T16:43:37;29.20;58.10
50738;DHT22;36703;48.154;17.126;2023-07-31T16:47:39;29.20;58.70
50738;DHT22;36703;48.154;17.126;2023-07-31T16:51:40;29.20;58.60
50738;DHT22;36703;48.154;17.126;2023-07-31T16:55:42;29.10;58.70
50738;DHT22;36703;48.154;17.126;2023-07-31T16:59:43;29.10;58.50
50738;DHT22;36703;48.154;17.126;2023-07-31T17:03:45;29.10;58.40
50738;DHT22;36703;48.154;17.126;2023-07-31T17:07:46;29.10;58.70
50738;DHT22;36703;48.154;17.126;2023-07-31T17:11:48;29.10;58.80
50738;DHT22;36703;48.154;17.126;2023-07-31T17:15:50;29.00;59.00
50738;DHT22;36703;48.154;17.126;2023-07-31T17:19:51;29.00;58.90
50738;DHT22;36703;48.154;17.126;2023-07-31T17:23:54;29.00;59.00
50738;DHT22;36703;48.154;17.126;2023-07-31T17:27:55;29.00;58.70
50738;DHT22;36703;48.154;17.126;2023-07-31T17:31:57;29.00;58.90
50738;DHT22;36703;48.154;17.126;2023-07-31T17:35:58;29.00;59.10
50738;DHT22;36703;48.154;17.126;2023-07-31T17:40:00;28.90;59.00
50738;DHT22;36703;48.154;17.126;2023-07-31T17:44:01;28.90;59.50
50738;DHT22;36703;48.154;17.126;2023-07-31T17:48:03;28.90;58.90
50738;DHT22;36703;48.154;17.126;2023-07-31T17:52:05;28.90;59.00
50738;DHT22;36703;48.154;17.126;2023-07-31T17:56:07;28.80;59.00
50738;DHT22;36703;48.154;17.126;2023-07-31T18:00:09;28.80;59.40
50738;DHT22;36703;48.154;17.126;2023-07-31T18:04:14;28.80;59.70
50738;DHT22;36703;48.154;17.126;2023-07-31T18:08:16;28.70;60.10
50738;DHT22;36703;48.154;17.126;2023-07-31T18:12:17;28.70;60.40
50738;DHT22;36703;48.154;17.126;2023-07-31T18:16:19;28.60;60.50
50738;DHT22;36703;48.154;17.126;2023-07-31T18:20:21;28.60;61.00
50738;DHT22;36703;48.154;17.126;2023-07-31T18:24:22;28.50;61.30
50738;DHT22;36703;48.154;17.126;2023-07-31T18:28:24;28.10;61.20
50738;DHT22;36703;48.154;17.126;2023-07-31T18:32:26;28.50;62.20
50738;DHT22;36703;48.154;17.126;2023-07-31T18:36:27;28.50;62.20
50738;DHT22;36703;48.154;17.126;2023-07-31T18:40:29;28.50;62.20
50738;DHT22;36703;48.154;17.126;2023-07-31T18:44:30;28.40;62.40
50738;DHT22;36703;48.154;17.126;2023-07-31T18:48:32;28.40;62.40
50738;DHT22;36703;48.154;17.126;2023-07-31T18:52:34;28.30;62.70
50738;DHT22;36703;48.154;17.126;2023-07-31T18:56:36;28.30;62.90
50738;DHT22;36703;48.154;17.126;2023-07-31T19:00:37;28.30;63.30
50738;DHT22;36703;48.154;17.126;2023-07-31T19:04:39;28.10;63.10
50738;DHT22;36703;48.154;17.126;2023-07-31T19:08:40;28.00;63.60
50738;DHT22;36703;48.154;17.126;2023-07-31T19:12:42;27.90;63.60
50738;DHT22;36703;48.154;17.126;2023-07-31T19:16:44;27.80;63.60
50738;DHT22;36703;48.154;17.126;2023-07-31T19:20:46;27.80;64.00
50738;DHT22;36703;48.154;17.126;2023-07-31T19:24:47;27.70;64.00
50738;DHT22;36703;48.154;17.126;2023-07-31T19:28:49;27.70;64.40
50738;DHT22;36703;48.154;17.126;2023-07-31T19:32:51;27.80;64.80
50738;DHT22;36703;48.154;17.126;2023-07-31T19:36:53;27.80;64.60
50738;DHT22;36703;48.154;17.126;2023-07-31T19:40:57;27.80;65.00
50738;DHT22;36703;48.154;17.126;2023-07-31T19:45:03;27.80;65.00
50738;DHT22;36703;48.154;17.126;2023-07-31T19:49:05;27.80;65.10
50738;DHT22;36703;48.154;17.126;2023-07-31T19:53:06;27.90;65.70
50738;DHT22;36703;48.154;17.126;2023-07-31T19:57:08;27.90;65.80
50738;DHT22;36703;48.154;17.126;2023-07-31T20:01:10;27.80;65.90
50738;DHT22;36703;48.154;17.126;2023-07-31T20:05:12;27.80;66.10
50738;DHT22;36703;48.154;17.126;2023-07-31T20:09:13;27.80;66.10
50738;DHT22;36703;48.154;17.126;2023-07-31T20:13:15;27.80;66.40
50738;DHT22;36703;48.154;17.126;2023-07-31T20:17:16;27.80;66.60
50738;DHT22;36703;48.154;17.126;2023-07-31T20:21:18;27.70;66.60
50738;DHT22;36703;48.154;17.126;2023-07-31T20:25:19;27.60;66.60
50738;DHT22;36703;48.154;17.126;2023-07-31T20:29:21;27.60;65.70
50738;DHT22;36703;48.154;17.126;2023-07-31T20:33:22;27.60;66.60
50738;DHT22;36703;48.154;17.126;2023-07-31T20:37:25;27.60;67.40
50738;DHT22;36703;48.154;17.126;2023-07-31T20:41:26;27.60;67.00
50738;DHT22;36703;48.154;17.126;2023-07-31T20:45:29;27.60;67.50
50738;DHT22;36703;48.154;17.126;2023-07-31T20:49:37;27.60;67.90
50738;DHT22;36703;48.154;17.126;2023-07-31T20:53:39;27.60;67.70
50738;DHT22;36703;48.154;17.126;2023-07-31T20:57:41;27.60;67.80
50738;DHT22;36703;48.154;17.126;2023-07-31T21:01:42;27.60;67.90
50738;DHT22;36703;48.154;17.126;2023-07-31T21:05:51;27.50;68.10
50738;DHT22;36703;48.154;17.126;2023-07-31T21:09:54;27.50;68.20
50738;DHT22;36703;48.154;17.126;2023-07-31T21:13:55;27.50;68.50
50738;DHT22;36703;48.154;17.126;2023-07-31T21:17:58;27.40;68.40
50738;DHT22;36703;48.154;17.126;2023-07-31T21:22:00;27.40;68.70
50738;DHT22;36703;48.154;17.126;2023-07-31T21:26:01;27.50;68.90
50738;DHT22;36703;48.154;17.126;2023-07-31T21:30:03;27.50;68.90
50738;DHT22;36703;48.154;17.126;2023-07-31T21:34:05;27.40;68.90
50738;DHT22;36703;48.154;17.126;2023-07-31T21:38:07;27.50;69.30
50738;DHT22;36703;48.154;17.126;2023-07-31T21:42:09;27.50;69.40
50738;DHT22;36703;48.154;17.126;2023-07-31T21:46:11;27.50;69.60
50738;DHT22;36703;48.154;17.126;2023-07-31T21:50:12;27.40;69.70
50738;DHT22;36703;48.154;17.126;2023-07-31T21:54:14;27.40;69.90
50738;DHT22;36703;48.154;17.126;2023-07-31T21:58:15;27.40;69.70
50738;DHT22;36703;48.154;17.126;2023-07-31T22:02:17;27.40;69.60
50738;DHT22;36703;48.154;17.126;2023-07-31T22:06:18;27.50;69.70
50738;DHT22;36703;48.154;17.126;2023-07-31T22:10:20;27.50;69.70
50738;DHT22;36703;48.154;17.126;2023-07-31T22:14:21;27.40;69.60
50738;DHT22;36703;48.154;17.126;2023-07-31T22:18:23;27.40;69.80
50738;DHT22;36703;48.154;17.126;2023-07-31T22:22:25;27.40;70.00
50738;DHT22;36703;48.154;17.126;2023-07-31T22:26:27;27.40;70.00
50738;DHT22;36703;48.154;17.126;2023-07-31T22:30:28;27.40;70.70
50738;DHT22;36703;48.154;17.126;2023-07-31T22:34:31;27.40;69.30
50738;DHT22;36703;48.154;17.126;2023-07-31T22:38:33;27.40;69.90
50738;DHT22;36703;48.154;17.126;2023-07-31T22:42:35;27.40;70.00
50738;DHT22;36703;48.154;17.126;2023-07-31T22:46:37;27.40;70.10
50738;DHT22;36703;48.154;17.126;2023-07-31T22:50:38;27.40;70.10
50738;DHT22;36703;48.154;17.126;2023-07-31T22:54:40;27.40;70.20
50738;DHT22;36703;48.154;17.126;2023-07-31T22:58:41;27.40;70.10
50738;DHT22;36703;48.154;17.126;2023-07-31T23:02:43;27.40;70.40
50738;DHT22;36703;48.154;17.126;2023-07-31T23:06:45;27.40;70.60
50738;DHT22;36703;48.154;17.126;2023-07-31T23:10:48;27.40;70.70
50738;DHT22;36703;48.154;17.126;2023-07-31T23:14:51;27.40;70.50
50738;DHT22;36703;48.154;17.126;2023-07-31T23:18:53;27.40;70.60
50738;DHT22;36703;48.154;17.126;2023-07-31T23:22:55;27.30;70.70
50738;DHT22;36703;48.154;17.126;2023-07-31T23:26:56;27.40;70.50
50738;DHT22;36703;48.154;17.126;2023-07-31T23:31:01;27.40;70.40
50738;DHT22;36703;48.154;17.126;2023-07-31T23:35:04;27.30;70.00
50738;DHT22;36703;48.154;17.126;2023-07-31T23:39:06;27.40;70.10
50738;DHT22;36703;48.154;17.126;2023-07-31T23:43:08;27.40;70.20
50738;DHT22;36703;48.154;17.126;2023-07-31T23:47:09;27.30;70.10
50738;DHT22;36703;48.154;17.126;2023-07-31T23:51:11;27.40;70.30
50738;DHT22;36703;48.154;17.126;2023-07-31T23:55:12;27.40;70.20
50738;DHT22;36703;48.154;17.126;2023-07-31T23:59:14;27.30;70.30
